Time;durP1;ratioP1;P1;durP2;ratioP2;P2;SDS_P1;SDS_P2;PMS_P1;PMS_P2;Temp;Humidity;BMP_temperature;BMP_pressure;BME280_temperature;BME280_humidity;BME280_pressure;Samples;Min_cycle;Max_cycle;Signal;HPM_P1;HPM_P2
2021/06/18 00:00:01;;;;;;;8.87;8.00;;;25.80;1.00;;;;;;5118283;28;20471;-70
2021/06/18 00:02:28;;;;;;;7.63;6.93;;;25.80;1.00;;;;;;5118131;28;20452;-70
2021/06/18 00:04:55;;;;;;;8.60;7.80;;;25.80;1.00;;;;;;5118137;28;20491;-70
2021/06/18 00:07:21;;;;;;;9.20;7.50;;;25.80;1.00;;;;;;5117827;28;20452;-70
2021/06/18 00:09:48;;;;;;;8.40;7.60;;;25.80;1.00;;;;;;5117983;28;20464;-70
2021/06/18 00:12:15;;;;;;;8.53;7.73;;;25.70;1.00;;;;;;5117870;28;20452;-70
2021/06/18 00:14:46;;;;;;;7.97;7.37;;;25.70;1.00;;;;;;5118025;28;20530;-70
2021/06/18 00:17:13;;;;;;;8.13;7.03;;;25.70;1.00;;;;;;5117796;28;20461;-70
2021/06/18 00:19:39;;;;;;;8.80;7.90;;;25.70;1.00;;;;;;5117593;28;20452;-70
2021/06/18 00:22:06;;;;;;;8.33;7.63;;;25.70;1.00;;;;;;5117945;28;20788;-70
2021/06/18 00:24:36;;;;;;;7.90;7.20;;;25.60;1.00;;;;;;5117871;28;20799;-70
2021/06/18 00:27:02;;;;;;;8.43;7.70;;;25.60;1.00;;;;;;5117421;28;20467;-70
2021/06/18 00:29:29;;;;;;;9.10;8.30;;;25.60;1.00;;;;;;5118674;28;20484;-71
2021/06/18 00:31:57;;;;;;;9.00;8.07;;;25.60;1.00;;;;;;5118028;28;20459;-70
2021/06/18 00:34:24;;;;;;;8.03;7.43;;;25.60;1.00;;;;;;5119326;28;20912;-70
2021/06/18 00:36:50;;;;;;;8.33;7.53;;;25.50;1.00;;;;;;5117507;28;20456;-71
2021/06/18 00:39:17;;;;;;;8.53;7.83;;;25.40;1.00;;;;;;5117664;28;20775;-69
2021/06/18 00:41:44;;;;;;;8.33;7.60;;;25.40;1.00;;;;;;5117145;28;20460;-70
2021/06/18 00:44:10;;;;;;;7.90;7.30;;;25.40;1.00;;;;;;5117486;28;20476;-70
2021/06/18 00:46:37;;;;;;;9.40;8.50;;;25.30;1.00;;;;;;5117283;28;20492;-69
2021/06/18 00:49:13;;;;;;;8.43;7.73;;;25.30;1.00;;;;;;5117264;28;20941;-70
2021/06/18 00:51:41;;;;;;;7.80;7.20;;;25.30;1.00;;;;;;5117792;28;20479;-70
2021/06/18 00:54:08;;;;;;;11.40;7.57;;;25.20;1.00;;;;;;5117100;28;20644;-70
2021/06/18 00:56:35;;;;;;;8.63;7.83;;;25.20;1.00;;;;;;5117315;28;20448;-70
2021/06/18 00:59:02;;;;;;;10.87;8.87;;;25.20;1.00;;;;;;5116944;28;20452;-70
2021/06/18 01:01:28;;;;;;;9.47;8.60;;;25.10;1.00;;;;;;5116127;28;20464;-70
2021/06/18 01:03:55;;;;;;;9.03;8.23;;;25.10;1.00;;;;;;5116742;28;20480;-70
2021/06/18 01:06:28;;;;;;;9.47;8.67;;;25.10;1.00;;;;;;5117130;28;20519;-70
2021/06/18 01:09:01;;;;;;;8.93;8.20;;;25.00;1.00;;;;;;5116507;28;20451;-71
2021/06/18 01:11:35;;;;;;;9.70;8.90;;;25.00;1.00;;;;;;5116430;28;20493;-70
2021/06/18 01:14:07;;;;;;;8.97;8.17;;;25.00;1.00;;;;;;5116914;28;20897;-70
2021/06/18 01:16:35;;;;;;;8.83;8.20;;;25.00;1.00;;;;;;5116660;28;20448;-70
2021/06/18 01:19:12;;;;;;;8.93;8.23;;;25.00;1.00;;;;;;5116495;28;20452;-70
2021/06/18 01:21:44;;;;;;;9.40;8.60;;;24.90;1.00;;;;;;5116362;28;20452;-70
2021/06/18 01:24:34;;;;;;;9.40;8.50;;;24.90;1.00;;;;;;5116454;28;20465;-70
2021/06/18 01:27:14;;;;;;;9.93;9.00;;;24.80;1.00;;;;;;5116611;28;20441;-70
2021/06/18 01:29:45;;;;;;;9.97;8.97;;;24.80;1.00;;;;;;5116781;28;20436;-70
2021/06/18 01:32:18;;;;;;;9.67;8.87;;;24.70;1.00;;;;;;5116311;28;20510;-69
2021/06/18 01:34:45;;;;;;;9.60;8.60;;;24.70;1.00;;;;;;5116281;28;20445;-70
2021/06/18 01:37:16;;;;;;;9.17;8.37;;;24.70;1.00;;;;;;5116290;28;20471;-69
2021/06/18 01:39:45;;;;;;;9.40;8.50;;;24.70;1.00;;;;;;5116264;28;20452;-70
2021/06/18 01:42:14;;;;;;;9.30;8.50;;;24.60;1.00;;;;;;5115646;28;20452;-70
2021/06/18 01:44:43;;;;;;;10.20;9.33;;;24.60;1.00;;;;;;5116098;28;20480;-69
2021/06/18 01:47:12;;;;;;;10.20;9.20;;;24.60;1.00;;;;;;5115520;28;20495;-70
2021/06/18 01:49:40;;;;;;;9.47;8.57;;;24.60;1.00;;;;;;5115615;28;20468;-70
2021/06/18 01:52:09;;;;;;;9.70;8.80;;;24.50;1.00;;;;;;5115854;28;20468;-70
2021/06/18 01:54:38;;;;;;;11.13;9.13;;;24.50;1.00;;;;;;5116005;28;20456;-70
2021/06/18 01:57:07;;;;;;;9.90;9.00;;;24.50;1.00;;;;;;5115900;28;20459;-70
2021/06/18 01:59:36;;;;;;;9.43;8.50;;;24.40;1.00;;;;;;5115942;28;20456;-70
2021/06/18 02:02:06;;;;;;;9.97;9.17;;;24.40;1.00;;;;;;5115426;28;20462;-70
2021/06/18 02:04:35;;;;;;;9.70;8.90;;;24.30;1.00;;;;;;5115467;28;20464;-70
2021/06/18 02:07:03;;;;;;;10.23;9.23;;;24.30;1.00;;;;;;5115519;28;20452;-70
2021/06/18 02:09:31;;;;;;;10.20;9.33;;;24.30;1.00;;;;;;5115477;28;20460;-71
2021/06/18 02:11:58;;;;;;;10.80;9.90;;;24.20;1.00;;;;;;5115366;28;20467;-71
2021/06/18 02:14:28;;;;;;;11.20;9.73;;;24.20;1.00;;;;;;5115721;28;20459;-71
2021/06/18 02:16:59;;;;;;;9.87;9.07;;;24.10;1.00;;;;;;5116078;28;20462;-71
2021/06/18 02:19:31;;;;;;;10.03;9.13;;;24.10;1.00;;;;;;5115843;28;20444;-71
2021/06/18 02:21:58;;;;;;;9.73;8.83;;;24.10;1.00;;;;;;5115588;28;20447;-71
2021/06/18 02:24:29;;;;;;;10.27;9.37;;;24.00;1.00;;;;;;5115548;28;20506;-71
2021/06/18 02:26:57;;;;;;;11.60;9.17;;;24.00;1.00;;;;;;5115357;28;20917;-71
2021/06/18 02:29:24;;;;;;;9.73;8.87;;;23.90;1.00;;;;;;5115367;28;20456;-71
2021/06/18 02:31:53;;;;;;;10.20;9.20;;;23.90;1.00;;;;;;5115233;28;20493;-71
2021/06/18 02:34:19;;;;;;;10.60;9.60;;;23.90;1.00;;;;;;5115147;28;20888;-71
2021/06/18 02:36:47;;;;;;;10.43;9.53;;;23.80;1.00;;;;;;5115323;28;20457;-71
2021/06/18 02:39:14;;;;;;;12.73;10.40;;;23.80;1.00;;;;;;5115492;28;20456;-71
2021/06/18 02:41:41;;;;;;;10.23;9.43;;;23.80;1.00;;;;;;5115194;28;20483;-71
2021/06/18 02:44:09;;;;;;;9.90;9.10;;;23.80;1.00;;;;;;5115313;28;20859;-71
2021/06/18 02:46:41;;;;;;;10.70;9.80;;;23.70;1.00;;;;;;5114664;28;20497;-71
2021/06/18 02:49:16;;;;;;;10.30;9.40;;;23.70;1.00;;;;;;5114906;28;20488;-71
2021/06/18 02:51:47;;;;;;;11.20;10.00;;;23.70;1.00;;;;;;5115089;28;20440;-71
2021/06/18 02:54:22;;;;;;;10.07;9.23;;;23.70;1.00;;;;;;5115140;28;20456;-71
2021/06/18 02:56:54;;;;;;;11.43;9.93;;;23.70;1.00;;;;;;5115235;28;20752;-71
2021/06/18 02:59:26;;;;;;;13.00;9.30;;;23.70;1.00;;;;;;5115106;28;20463;-71
2021/06/18 03:01:56;;;;;;;12.30;10.97;;;23.70;1.00;;;;;;5115156;28;20464;-71
2021/06/18 03:04:26;;;;;;;9.77;8.97;;;23.70;1.00;;;;;;5114758;28;20464;-71
2021/06/18 03:06:57;;;;;;;9.83;9.03;;;23.60;1.00;;;;;;5114544;28;20460;-71
2021/06/18 03:09:30;;;;;;;10.90;9.93;;;23.70;1.00;;;;;;5115044;28;20436;-71
2021/06/18 03:11:58;;;;;;;10.47;9.57;;;23.70;1.00;;;;;;5115607;28;20893;-71
2021/06/18 03:14:29;;;;;;;10.93;9.80;;;23.60;1.00;;;;;;5114895;28;20761;-71
2021/06/18 03:16:59;;;;;;;11.20;9.87;;;23.60;1.00;;;;;;5115022;28;20493;-71
2021/06/18 03:19:30;;;;;;;10.80;9.73;;;23.60;1.00;;;;;;5114651;28;20833;-71
2021/06/18 03:22:00;;;;;;;10.10;9.20;;;23.60;1.00;;;;;;5115020;28;20437;-71
2021/06/18 03:24:30;;;;;;;10.37;9.47;;;23.60;1.00;;;;;;5117420;28;20556;-71
2021/06/18 03:26:57;;;;;;;10.87;9.80;;;23.60;1.00;;;;;;5118886;28;20753;-71
2021/06/18 03:29:27;;;;;;;10.03;9.13;;;23.60;1.00;;;;;;5118659;28;20840;-71
2021/06/18 03:31:55;;;;;;;10.60;9.60;;;23.50;1.00;;;;;;5118880;28;20792;-70
2021/06/18 03:34:22;;;;;;;11.03;10.07;;;23.50;1.00;;;;;;5118826;28;20900;-70
2021/06/18 03:36:50;;;;;;;10.77;9.80;;;23.60;1.00;;;;;;5118758;28;20460;-71
2021/06/18 03:39:18;;;;;;;11.30;10.20;;;23.60;1.00;;;;;;5118607;28;20793;-71
2021/06/18 03:41:46;;;;;;;10.40;9.40;;;23.60;1.00;;;;;;5118683;28;20772;-70
2021/06/18 03:44:14;;;;;;;10.50;9.50;;;23.60;1.00;;;;;;5118212;28;20916;-71
2021/06/18 03:46:41;;;;;;;10.43;9.63;;;23.60;1.00;;;;;;5118070;28;20479;-71
2021/06/18 03:49:09;;;;;;;10.67;9.77;;;23.60;1.00;;;;;;5118305;28;20452;-70
2021/06/18 03:51:36;;;;;;;10.33;9.47;;;23.60;1.00;;;;;;5118236;28;20471;-70
2021/06/18 03:54:04;;;;;;;11.20;9.73;;;23.60;1.00;;;;;;5118038;28;20455;-70
2021/06/18 03:56:32;;;;;;;10.73;9.90;;;23.70;1.00;;;;;;5118366;28;20444;-71
2021/06/18 03:59:01;;;;;;;10.33;9.43;;;23.60;1.00;;;;;;5118226;28;20448;-71
2021/06/18 04:01:28;;;;;;;11.63;10.43;;;23.70;1.00;;;;;;5118672;28;20459;-71
2021/06/18 04:03:58;;;;;;;11.37;10.30;;;23.70;1.00;;;;;;5118468;28;20451;-70
2021/06/18 04:06:28;;;;;;;11.30;10.20;;;23.70;1.00;;;;;;5117731;28;20972;-71
2021/06/18 04:08:56;;;;;;;11.27;10.30;;;23.70;1.00;;;;;;5118206;28;20436;-71
2021/06/18 04:11:23;;;;;;;11.57;10.40;;;23.70;1.00;;;;;;5117849;28;20463;-70
2021/06/18 04:13:50;;;;;;;9.97;9.10;;;23.70;1.00;;;;;;5117849;28;20460;-71
2021/06/18 04:16:18;;;;;;;10.27;9.27;;;23.80;1.00;;;;;;5117883;28;20800;-70
2021/06/18 04:18:47;;;;;;;11.17;10.07;;;23.80;1.00;;;;;;5118141;28;20464;-70
2021/06/18 04:21:16;;;;;;;10.40;9.50;;;23.80;1.00;;;;;;5117691;28;20463;-70
2021/06/18 04:23:43;;;;;;;10.33;9.43;;;23.80;1.00;;;;;;5118487;28;20821;-70
2021/06/18 04:26:10;;;;;;;10.40;9.40;;;23.80;1.00;;;;;;5117525;28;20477;-71
2021/06/18 04:28:38;;;;;;;9.90;9.00;;;23.90;1.00;;;;;;5117567;28;20453;-70
2021/06/18 04:31:06;;;;;;;12.50;9.50;;;23.90;1.00;;;;;;5117926;28;20452;-71
2021/06/18 04:33:35;;;;;;;9.73;8.83;;;23.90;1.00;;;;;;5117497;28;20468;-71
2021/06/18 04:36:02;;;;;;;9.47;8.77;;;24.00;1.00;;;;;;5117179;28;20457;-70
2021/06/18 04:38:28;;;;;;;10.30;9.30;;;24.00;1.00;;;;;;5117746;28;20463;-71
2021/06/18 04:40:56;;;;;;;10.00;9.03;;;24.00;1.00;;;;;;5117428;28;20456;-71
2021/06/18 04:43:22;;;;;;;9.77;8.97;;;24.10;1.00;;;;;;5117672;28;20460;-70
2021/06/18 04:45:49;;;;;;;9.30;8.53;;;24.10;1.00;;;;;;5116966;28;20814;-70
2021/06/18 04:48:16;;;;;;;10.10;9.20;;;24.10;1.00;;;;;;5117433;28;20437;-70
2021/06/18 04:50:44;;;;;;;9.70;8.90;;;24.20;1.00;;;;;;5117191;28;20592;-70
2021/06/18 04:53:11;;;;;;;10.50;9.50;;;24.20;1.00;;;;;;5117011;28;20461;-70
2021/06/18 04:55:39;;;;;;;10.13;9.23;;;24.20;1.00;;;;;;5117193;28;20453;-71
2021/06/18 04:58:06;;;;;;;10.93;9.77;;;24.30;1.00;;;;;;5117490;28;20452;-70
2021/06/18 05:00:33;;;;;;;10.43;9.53;;;24.30;1.00;;;;;;5117034;28;20453;-71
2021/06/18 05:03:00;;;;;;;10.30;9.10;;;24.40;1.00;;;;;;5117116;28;20513;-72
2021/06/18 05:05:27;;;;;;;10.03;9.23;;;24.40;1.00;;;;;;5116337;28;20480;-71
2021/06/18 05:07:57;;;;;;;11.83;9.37;;;24.50;1.00;;;;;;5116929;28;20452;-70
2021/06/18 05:10:25;;;;;;;33.20;29.43;;;24.50;1.00;;;;;;5116938;28;20467;-70
2021/06/18 05:12:52;;;;;;;10.90;10.00;;;24.50;1.00;;;;;;5116629;27;20531;-70
2021/06/18 05:15:19;;;;;;;11.27;10.30;;;24.60;1.00;;;;;;5116652;28;20461;-71
2021/06/18 05:17:47;;;;;;;9.70;8.80;;;24.70;1.00;;;;;;5117059;28;20923;-71
2021/06/18 05:20:14;;;;;;;10.07;9.10;;;24.70;1.00;;;;;;5118614;28;20839;-71
2021/06/18 05:22:41;;;;;;;12.77;9.37;;;24.70;1.00;;;;;;5117637;28;20456;-71
2021/06/18 05:25:11;;;;;;;11.50;9.13;;;24.80;1.00;;;;;;5116630;28;20487;-71
2021/06/18 05:27:38;;;;;;;10.07;9.07;;;24.80;1.00;;;;;;5116614;28;20745;-71
2021/06/18 05:30:06;;;;;;;14.63;13.20;;;24.80;1.00;;;;;;5116634;28;20452;-71
2021/06/18 05:32:33;;;;;;;10.23;9.37;;;24.90;1.00;;;;;;5116502;28;20464;-71
2021/06/18 05:35:00;;;;;;;10.47;8.97;;;24.90;1.00;;;;;;5116532;28;20534;-71
2021/06/18 05:37:26;;;;;;;9.77;8.77;;;25.00;1.00;;;;;;5116380;28;20494;-71
2021/06/18 05:39:53;;;;;;;9.97;9.07;;;25.00;1.00;;;;;;5116365;28;20472;-74
2021/06/18 05:42:21;;;;;;;10.10;9.20;;;25.10;1.00;;;;;;5115886;28;20896;-70
2021/06/18 05:44:48;;;;;;;9.77;8.97;;;25.10;1.00;;;;;;5116171;28;20467;-71
2021/06/18 05:47:15;;;;;;;9.70;8.80;;;25.20;1.00;;;;;;5114998;28;20491;-71
2021/06/18 05:49:41;;;;;;;8.63;7.93;;;25.30;1.00;;;;;;5115964;28;20932;-71
2021/06/18 05:52:08;;;;;;;9.30;8.57;;;25.30;1.00;;;;;;5116154;28;20469;-71
2021/06/18 05:54:35;;;;;;;9.30;8.30;;;25.40;1.00;;;;;;5116022;28;20471;-71
2021/06/18 05:57:02;;;;;;;8.50;7.70;;;25.40;1.00;;;;;;5116045;28;20786;-71
2021/06/18 05:59:30;;;;;;;8.50;7.80;;;25.50;1.00;;;;;;5115472;28;20935;-71
2021/06/18 06:01:57;;;;;;;8.97;7.30;;;25.60;1.00;;;;;;5116049;28;20464;-72
2021/06/18 06:04:24;;;;;;;8.40;7.63;;;25.70;1.00;;;;;;5115388;28;20461;-71
2021/06/18 06:06:50;;;;;;;8.23;7.53;;;25.80;1.00;;;;;;5115738;28;20477;-71
2021/06/18 06:09:17;;;;;;;8.10;7.40;;;25.90;1.00;;;;;;5116579;28;20460;-71
2021/06/18 06:11:44;;;;;;;7.63;7.00;;;25.90;1.00;;;;;;5115187;28;20459;-71
2021/06/18 06:14:16;;;;;;;7.90;7.30;;;26.00;1.00;;;;;;5115622;28;20457;-72
2021/06/18 06:16:45;;;;;;;7.60;6.87;;;26.10;1.00;;;;;;5115335;28;20896;-70
2021/06/18 06:19:14;;;;;;;8.93;7.50;;;26.20;1.00;;;;;;5115526;28;20517;-70
2021/06/18 06:21:41;;;;;;;9.63;6.90;;;26.30;1.00;;;;;;5115568;28;20471;-71
2021/06/18 06:24:09;;;;;;;7.60;6.87;;;26.30;1.00;;;;;;5115545;28;20457;-71
2021/06/18 06:26:36;;;;;;;10.50;6.60;;;26.40;1.00;;;;;;5115531;28;20870;-71
2021/06/18 06:29:03;;;;;;;6.67;6.07;;;26.50;1.00;;;;;;5114996;28;20467;-70
2021/06/18 06:31:30;;;;;;;6.37;5.73;;;26.60;1.00;;;;;;5115077;28;20453;-71
2021/06/18 06:33:58;;;;;;;7.60;6.43;;;26.80;1.00;;;;;;5115420;28;20460;-71
2021/06/18 06:36:25;;;;;;;6.53;5.93;;;26.80;1.00;;;;;;5115147;28;20453;-71
2021/06/18 06:38:52;;;;;;;9.67;5.90;;;26.90;1.00;;;;;;5115800;28;20456;-71
2021/06/18 06:41:19;;;;;;;8.50;5.60;;;27.00;1.00;;;;;;5115309;28;20456;-71
2021/06/18 06:43:45;;;;;;;6.03;5.50;;;27.10;1.00;;;;;;5115087;28;20471;-70
2021/06/18 06:46:12;;;;;;;5.83;5.20;;;27.10;1.00;;;;;;5114915;28;20787;-70
2021/06/18 06:48:39;;;;;;;6.77;5.00;;;27.30;1.00;;;;;;5115343;28;20472;-70
2021/06/18 06:51:07;;;;;;;6.60;5.23;;;27.30;1.00;;;;;;5115122;28;20452;-71
2021/06/18 06:53:34;;;;;;;6.00;5.40;;;27.40;1.00;;;;;;5115364;28;20452;-70
2021/06/18 06:56:00;;;;;;;6.80;4.60;;;27.50;1.00;;;;;;5115109;28;20456;-71
2021/06/18 06:58:27;;;;;;;7.27;4.90;;;27.60;1.00;;;;;;5116385;28;20946;-71
2021/06/18 07:00:54;;;;;;;5.40;5.10;;;27.70;1.00;;;;;;5119372;28;20456;-71
2021/06/18 07:03:20;;;;;;;6.03;5.50;;;27.80;1.00;;;;;;5119166;28;20467;-71
2021/06/18 07:05:47;;;;;;;5.77;4.90;;;27.90;1.00;;;;;;5118773;28;20487;-71
2021/06/18 07:08:18;;;;;;;6.83;5.00;;;28.00;1.00;;;;;;5118897;28;20479;-71
2021/06/18 07:10:45;;;;;;;9.40;5.03;;;28.00;1.00;;;;;;5118858;28;20447;-71
2021/06/18 07:13:11;;;;;;;5.77;4.60;;;28.10;1.00;;;;;;5119149;28;20464;-70
2021/06/18 07:15:38;;;;;;;5.40;4.90;;;28.20;1.00;;;;;;5119038;28;20456;-71
2021/06/18 07:18:05;;;;;;;7.50;4.73;;;28.30;1.00;;;;;;5118915;28;20821;-70
2021/06/18 07:20:32;;;;;;;5.57;5.07;;;28.30;1.00;;;;;;5118902;28;20452;-70
2021/06/18 07:22:59;;;;;;;5.30;4.60;;;28.50;1.00;;;;;;5118460;28;20463;-71
2021/06/18 07:25:27;;;;;;;7.43;5.23;;;28.50;1.00;;;;;;5118823;28;20460;-70
2021/06/18 07:27:54;;;;;;;6.13;4.93;;;28.50;1.00;;;;;;5118677;28;20437;-71
2021/06/18 07:30:22;;;;;;;6.70;5.17;;;28.60;1.00;;;;;;5118610;28;20475;-71
2021/06/18 07:32:49;;;;;;;4.47;4.17;;;28.70;1.00;;;;;;5118822;28;20806;-71
2021/06/18 07:35:16;;;;;;;10.13;8.50;;;28.70;1.00;;;;;;5119160;28;20456;-71
2021/06/18 07:37:44;;;;;;;7.23;5.03;;;28.80;1.00;;;;;;5118854;28;20459;-71
2021/06/18 07:40:13;;;;;;;4.77;4.27;;;28.90;1.00;;;;;;5119335;28;20916;-71
2021/06/18 07:42:42;;;;;;;5.37;4.67;;;28.90;1.00;;;;;;5118587;28;20908;-72
2021/06/18 07:45:10;;;;;;;5.97;3.90;;;29.00;1.00;;;;;;5118817;28;20455;-70
2021/06/18 07:47:38;;;;;;;4.30;3.77;;;29.10;1.00;;;;;;5118365;28;20492;-71
2021/06/18 07:50:07;;;;;;;5.53;5.07;;;29.20;1.00;;;;;;5120549;28;20474;-71
2021/06/18 07:52:33;;;;;;;8.30;4.30;;;29.20;1.00;;;;;;5118818;28;20460;-72
2021/06/18 07:55:01;;;;;;;7.00;6.10;;;29.30;1.00;;;;;;5118692;28;20539;-72
2021/06/18 07:57:28;;;;;;;4.70;4.40;;;29.30;1.00;;;;;;5118456;28;20528;-71
2021/06/18 07:59:56;;;;;;;13.20;4.80;;;29.40;1.00;;;;;;5118223;28;20448;-71
2021/06/18 08:02:23;;;;;;;5.63;4.30;;;29.50;1.00;;;;;;5118129;28;20776;-71
2021/06/18 08:04:50;;;;;;;11.63;4.10;;;29.60;1.00;;;;;;5118164;28;20452;-71
2021/06/18 08:07:16;;;;;;;10.30;3.80;;;29.60;1.00;;;;;;5118115;28;20817;-70
2021/06/18 08:09:43;;;;;;;4.90;4.40;;;29.60;1.00;;;;;;5117194;28;20452;-71
2021/06/18 08:12:10;;;;;;;4.53;3.67;;;29.50;1.00;;;;;;5118062;28;20457;-70
2021/06/18 08:14:37;;;;;;;5.80;3.97;;;29.60;1.00;;;;;;5118189;28;20468;-71
2021/06/18 08:17:05;;;;;;;5.00;4.10;;;29.60;1.00;;;;;;5118352;28;20452;-69
2021/06/18 08:19:32;;;;;;;5.50;3.90;;;29.70;1.00;;;;;;5118736;28;20475;-71
2021/06/18 08:21:59;;;;;;;5.27;4.00;;;29.80;1.00;;;;;;5118061;28;20452;-70
2021/06/18 08:24:26;;;;;;;5.97;3.67;;;29.80;1.00;;;;;;5117659;28;20460;-72
2021/06/18 08:26:53;;;;;;;5.07;4.00;;;29.80;1.00;;;;;;5118015;28;20526;-71
2021/06/18 08:29:20;;;;;;;4.87;4.10;;;29.90;1.00;;;;;;5117775;28;20543;-72
2021/06/18 08:31:46;;;;;;;5.30;3.97;;;29.90;1.00;;;;;;5118147;28;20453;-71
2021/06/18 08:34:14;;;;;;;4.00;3.40;;;30.00;1.00;;;;;;5118174;28;20549;-70
2021/06/18 08:36:41;;;;;;;10.50;9.50;;;30.10;1.00;;;;;;5117530;28;20460;-70
2021/06/18 08:39:08;;;;;;;3.60;3.30;;;30.20;1.00;;;;;;5117577;28;20467;-71
2021/06/18 08:41:36;;;;;;;3.60;3.30;;;30.20;1.00;;;;;;5117401;28;20448;-71
2021/06/18 08:44:03;;;;;;;10.37;3.83;;;30.30;1.00;;;;;;5118162;28;20464;-71
2021/06/18 08:46:30;;;;;;;4.00;3.47;;;30.30;1.00;;;;;;5118144;28;20570;-71
2021/06/18 08:48:57;;;;;;;7.63;3.20;;;30.40;1.00;;;;;;5118381;28;20452;-72
2021/06/18 08:51:25;;;;;;;4.10;3.00;;;30.40;1.00;;;;;;5117959;28;20514;-71
2021/06/18 08:53:52;;;;;;;8.00;3.90;;;30.50;1.00;;;;;;5117799;28;20464;-73
2021/06/18 08:56:19;;;;;;;3.60;3.30;;;30.50;1.00;;;;;;5117760;28;20463;-71
2021/06/18 08:58:46;;;;;;;7.53;3.17;;;30.50;1.00;;;;;;5117777;28;20452;-70
2021/06/18 09:01:13;;;;;;;11.30;3.90;;;30.50;1.00;;;;;;5118028;28;20552;-70
2021/06/18 09:03:43;;;;;;;6.93;4.20;;;30.50;1.00;;;;;;5117390;28;20453;-70
2021/06/18 09:06:28;;;;;;;4.43;4.03;;;30.50;1.00;;;;;;5117048;28;20457;-70
2021/06/18 09:09:19;;;;;;;4.13;3.70;;;30.60;1.00;;;;;;5118831;28;20463;-69
2021/06/18 09:11:48;;;;;;;5.07;3.27;;;30.50;1.00;;;;;;5117752;28;20445;-69
2021/06/18 09:14:16;;;;;;;3.97;3.50;;;30.60;1.00;;;;;;5117454;28;20461;-70
2021/06/18 09:16:43;;;;;;;3.80;3.47;;;30.60;1.00;;;;;;5117687;28;20459;-70
2021/06/18 09:19:24;;;;;;;3.93;3.50;;;30.70;1.00;;;;;;5117918;28;20456;-69
2021/06/18 09:21:59;;;;;;;5.60;3.50;;;30.80;1.00;;;;;;5116562;28;20463;-69
2021/06/18 09:24:29;;;;;;;6.10;3.70;;;30.90;1.00;;;;;;5117990;28;20447;-69
2021/06/18 09:26:56;;;;;;;5.70;4.27;;;30.90;1.00;;;;;;5117608;28;20824;-69
2021/06/18 09:29:23;;;;;;;5.80;3.63;;;31.00;1.00;;;;;;5117611;28;20467;-70
2021/06/18 09:31:52;;;;;;;3.77;3.47;;;31.00;1.00;;;;;;5117690;28;20460;-70
2021/06/18 09:34:37;;;;;;;7.37;3.93;;;31.00;1.00;;;;;;5118419;28;20456;-69
2021/06/18 09:37:18;;;;;;;3.63;3.33;;;31.10;1.00;;;;;;5118382;28;20449;-69
2021/06/18 09:39:59;;;;;;;5.10;4.20;;;31.20;1.00;;;;;;5117269;28;20501;-69
2021/06/18 09:42:26;;;;;;;4.60;4.27;;;31.30;1.00;;;;;;5116568;28;20447;-70
2021/06/18 09:45:01;;;;;;;4.63;4.13;;;31.30;1.00;;;;;;5117290;28;20521;-70
2021/06/18 09:47:28;;;;;;;4.83;3.93;;;31.40;1.00;;;;;;5117112;28;20484;-69
2021/06/18 09:49:55;;;;;;;9.40;4.23;;;31.40;1.00;;;;;;5116370;28;20499;-70
2021/06/18 09:52:25;;;;;;;4.20;3.40;;;31.40;1.00;;;;;;5116449;28;20551;-69
2021/06/18 09:54:53;;;;;;;5.87;3.70;;;31.30;1.00;;;;;;5116050;28;20486;-69
2021/06/18 09:57:23;;;;;;;5.00;4.50;;;31.30;1.00;;;;;;5115871;28;20904;-69
2021/06/18 10:00:01;;;;;;;6.00;3.70;;;31.40;1.00;;;;;;5116085;28;20463;-69
2021/06/18 10:02:38;;;;;;;4.47;4.07;;;31.40;1.00;;;;;;5116808;28;20869;-69
2021/06/18 10:05:07;;;;;;;5.83;4.10;;;31.50;1.00;;;;;;5116321;28;20456;-68
2021/06/18 10:07:35;;;;;;;6.13;4.30;;;31.60;1.00;;;;;;5116656;28;20491;-69
2021/06/18 10:10:05;;;;;;;4.43;4.13;;;31.60;1.00;;;;;;5116880;28;20457;-70
2021/06/18 10:12:32;;;;;;;4.90;4.50;;;31.70;1.00;;;;;;5115755;28;20463;-69
2021/06/18 10:15:05;;;;;;;4.77;4.37;;;31.70;1.00;;;;;;5116411;27;20463;-70
2021/06/18 10:17:32;;;;;;;3.97;3.67;;;31.70;1.00;;;;;;5116017;28;20433;-69
2021/06/18 10:19:59;;;;;;;7.33;4.80;;;31.80;1.00;;;;;;5116334;28;20916;-69
2021/06/18 10:22:28;;;;;;;6.50;3.73;;;31.90;1.00;;;;;;5117965;28;20457;-69
2021/06/18 10:25:00;;;;;;;6.80;4.40;;;32.00;1.00;;;;;;5118219;28;20456;-70
2021/06/18 10:27:32;;;;;;;5.00;4.50;;;32.10;1.00;;;;;;5118640;28;20831;-69
2021/06/18 10:29:59;;;;;;;4.90;3.83;;;32.30;1.00;;;;;;5116728;28;20456;-69
2021/06/18 10:32:36;;;;;;;4.40;3.73;;;32.40;1.00;;;;;;5116132;28;20460;-69
2021/06/18 10:35:06;;;;;;;10.17;9.37;;;32.50;1.00;;;;;;5115845;28;20456;-69
2021/06/18 10:37:34;;;;;;;9.23;4.70;;;32.60;1.00;;;;;;5115155;28;20491;-70
2021/06/18 10:40:09;;;;;;;4.40;3.70;;;32.60;1.00;;;;;;5116619;28;20558;-69
2021/06/18 10:42:36;;;;;;;4.80;4.40;;;32.70;1.00;;;;;;5115545;28;20459;-70
2021/06/18 10:45:04;;;;;;;3.93;3.73;;;32.80;1.00;;;;;;5115164;28;20460;-69
2021/06/18 10:47:59;;;;;;;3.90;3.63;;;32.90;1.00;;;;;;5114828;28;20491;-69
2021/06/18 10:50:50;;;;;;;5.40;5.00;;;33.00;1.00;;;;;;5068593;28;20449;-69
2021/06/18 10:53:24;;;;;;;6.83;3.90;;;33.10;1.00;;;;;;5115700;28;20448;-69
2021/06/18 10:55:54;;;;;;;4.90;3.60;;;33.10;1.00;;;;;;5115503;28;20448;-69
2021/06/18 10:58:21;;;;;;;5.70;4.23;;;33.20;1.00;;;;;;5115600;28;20491;-69
2021/06/18 11:00:48;;;;;;;4.17;3.93;;;33.30;1.00;;;;;;5115582;28;20452;-69
2021/06/18 11:03:17;;;;;;;4.60;4.13;;;33.40;1.00;;;;;;5115956;28;20460;-69
2021/06/18 11:05:47;;;;;;;11.07;4.10;;;33.40;1.00;;;;;;5116119;28;20448;-69
2021/06/18 11:08:25;;;;;;;4.00;3.53;;;33.40;1.00;;;;;;5115370;28;20483;-69
2021/06/18 11:10:57;;;;;;;5.40;3.70;;;33.60;1.00;;;;;;5115528;28;20836;-68
2021/06/18 11:13:24;;;;;;;3.83;3.50;;;33.70;1.00;;;;;;5116301;28;20927;-69
2021/06/18 11:15:51;;;;;;;4.33;3.37;;;33.80;1.00;;;;;;5115524;28;20456;-68
2021/06/18 11:18:19;;;;;;;4.50;3.50;;;33.90;1.00;;;;;;5115912;28;20464;-69
2021/06/18 11:20:51;;;;;;;4.17;3.57;;;34.10;1.00;;;;;;5115465;28;20766;-68
2021/06/18 11:23:21;;;;;;;3.77;3.47;;;34.40;1.00;;;;;;5115569;28;20766;-70
2021/06/18 11:25:58;;;;;;;4.40;3.43;;;34.70;1.00;;;;;;5115362;28;20452;-69
2021/06/18 11:28:42;;;;;;;3.50;2.70;;;35.40;1.00;;;;;;5115377;28;20554;-69
2021/06/18 11:31:13;;;;;;;3.30;3.00;;;36.20;1.00;;;;;;5115266;28;20885;-69
2021/06/18 11:33:55;;;;;;;3.40;3.10;;;37.00;1.00;;;;;;5115708;28;20451;-69
2021/06/18 11:36:52;;;;;;;5.83;3.30;;;37.90;1.00;;;;;;5115777;28;20462;-69
2021/06/18 11:39:28;;;;;;;4.63;2.70;;;38.80;1.00;;;;;;5116045;28;20447;-69
2021/06/18 11:42:08;;;;;;;4.17;2.80;;;39.20;1.00;;;;;;5115690;28;20816;-69
2021/06/18 11:44:36;;;;;;;3.07;2.77;;;39.50;1.00;;;;;;5116890;28;20432;-69
2021/06/18 11:47:04;;;;;;;5.83;2.83;;;39.90;1.00;;;;;;5118516;28;20480;-69
2021/06/18 11:49:34;;;;;;;4.73;3.33;;;40.30;1.00;;;;;;5119488;28;20452;-68
2021/06/18 11:52:10;;;;;;;4.30;2.97;;;40.60;1.00;;;;;;5120158;28;20456;-70
2021/06/18 11:54:40;;;;;;;7.97;2.50;;;41.00;1.00;;;;;;5119650;28;20496;-71
2021/06/18 11:57:19;;;;;;;4.73;2.83;;;41.20;1.00;;;;;;5119136;28;20456;-69
2021/06/18 11:59:59;;;;;;;3.90;2.57;;;41.30;1.00;;;;;;5119445;28;20433;-68
2021/06/18 12:02:29;;;;;;;2.57;2.37;;;41.40;1.00;;;;;;5119709;28;20808;-69
2021/06/18 12:05:19;;;;;;;3.53;2.63;;;41.50;1.00;;;;;;5119700;28;20453;-69
2021/06/18 12:07:46;;;;;;;4.27;2.67;;;41.80;1.00;;;;;;5119323;28;20480;-69
2021/06/18 12:10:32;;;;;;;5.73;2.63;;;42.20;1.00;;;;;;5119336;28;20480;-69
2021/06/18 12:13:01;;;;;;;2.70;2.50;;;42.50;1.00;;;;;;5119428;28;20472;-70
2021/06/18 12:15:30;;;;;;;3.97;3.23;;;42.60;1.00;;;;;;5118905;28;20483;-69
2021/06/18 12:17:59;;;;;;;4.40;3.00;;;42.70;1.00;;;;;;5119016;28;20448;-69
2021/06/18 12:20:29;;;;;;;2.67;2.40;;;42.60;1.00;;;;;;5119463;28;20456;-68
2021/06/18 12:22:56;;;;;;;3.20;2.50;;;42.20;1.00;;;;;;5118367;28;20460;-68
2021/06/18 12:25:23;;;;;;;4.00;2.63;;;42.20;1.00;;;;;;5118461;28;20467;-69
2021/06/18 12:27:55;;;;;;;3.10;2.90;;;42.20;1.00;;;;;;5119234;28;20483;-68
2021/06/18 12:30:24;;;;;;;2.97;2.67;;;42.50;1.00;;;;;;5118619;28;20451;-68
2021/06/18 12:32:52;;;;;;;6.53;3.30;;;42.90;1.00;;;;;;5118852;28;20447;-69
2021/06/18 12:35:22;;;;;;;3.10;2.80;;;43.30;1.00;;;;;;5118913;28;20455;-69
2021/06/18 12:37:51;;;;;;;4.60;2.60;;;43.70;1.00;;;;;;5119229;27;20454;-68
2021/06/18 12:40:22;;;;;;;3.13;2.93;;;44.00;1.00;;;;;;5119469;28;20487;-69
2021/06/18 12:42:50;;;;;;;2.97;2.67;;;44.30;1.00;;;;;;5118810;28;20436;-68
2021/06/18 12:45:19;;;;;;;3.07;2.77;;;44.30;1.00;;;;;;5118822;28;20468;-69
2021/06/18 12:47:49;;;;;;;15.13;3.17;;;44.40;1.00;;;;;;5118722;28;20487;-69
2021/06/18 12:50:30;;;;;;;3.50;2.80;;;44.70;1.00;;;;;;5119421;28;20433;-68
2021/06/18 12:52:59;;;;;;;3.07;2.83;;;44.80;1.00;;;;;;5119739;28;20801;-69
2021/06/18 12:55:28;;;;;;;3.07;2.87;;;44.80;1.00;;;;;;5119833;28;20462;-69
2021/06/18 12:58:10;;;;;;;2.60;2.40;;;44.50;1.00;;;;;;5118732;28;20448;-69
2021/06/18 13:00:48;;;;;;;5.43;2.90;;;44.30;1.00;;;;;;5118519;28;20448;-69
2021/06/18 13:03:17;;;;;;;5.10;3.17;;;43.90;1.00;;;;;;5118823;28;20455;-69